Time,TemperatureF,DewpointF,PressureIn,WindDirection,WindDirectionDegrees,WindSpeedMPH,WindSpeedGustMPH,Humidity,HourlyPrecipIn,Conditions,Clouds,dailyrainin,SolarRadiationWatts/m^2,SoftwareType,DateUTC
2013-01-23 00:03:00,18.0,3.0,-100.00,WNW,293,5.0,11.0,50,0.00,,,0.02,0.000000,,2013-01-23 05:03:00,
2013-01-23 00:12:00,18.0,3.0,-100.00,NW,308,5.0,11.0,50,0.00,,,0.02,0.000000,,2013-01-23 05:12:00,
2013-01-23 00:33:00,18.0,3.0,-100.00,NW,308,5.0,11.0,50,0.00,,,0.02,0.000000,,2013-01-23 05:33:00,
2013-01-23 00:43:00,18.0,3.0,-100.00,NW,308,5.0,11.0,50,0.00,,,0.02,0.000000,,2013-01-23 05:43:00,
2013-01-23 00:53:00,18.0,3.0,-100.00,NW,308,5.0,11.0,50,0.00,,,0.02,0.000000,,2013-01-23 05:53:00,
2013-01-23 01:03:00,18.0,3.0,-100.00,NW,308,5.0,11.0,50,0.00,,,0.02,0.000000,,2013-01-23 06:03:00,
2013-01-23 01:12:00,17.0,0.0,-100.00,WNW,292,4.0,11.0,47,0.00,,,0.02,0.000000,,2013-01-23 06:12:00,
2013-01-23 01:33:00,17.0,0.0,-100.00,WNW,292,4.0,11.0,47,0.00,,,0.02,0.000000,,2013-01-23 06:33:00,
2013-01-23 01:43:00,17.0,0.0,-100.00,WNW,292,4.0,11.0,47,0.00,,,0.02,0.000000,,2013-01-23 06:43:00,
2013-01-23 01:53:00,17.0,0.0,-100.00,WNW,292,4.0,11.0,47,0.00,,,0.02,0.000000,,2013-01-23 06:53:00,
2013-01-23 02:02:00,17.0,0.0,-100.00,WNW,292,4.0,11.0,47,0.00,,,0.02,0.000000,,2013-01-23 07:02:00,
2013-01-23 02:12:00,16.0,0.0,-100.00,WNW,292,5.0,15.0,49,0.00,,,0.02,0.000000,,2013-01-23 07:12:00,
2013-01-23 02:33:00,16.0,0.0,-100.00,WNW,292,5.0,15.0,49,0.00,,,0.02,0.000000,,2013-01-23 07:33:00,
2013-01-23 02:43:00,16.0,0.0,-100.00,WNW,292,5.0,15.0,49,0.00,,,0.02,0.000000,,2013-01-23 07:43:00,
2013-01-23 02:53:00,16.0,0.0,-100.00,WNW,292,5.0,15.0,49,0.00,,,0.02,0.000000,,2013-01-23 07:53:00,
2013-01-23 03:02:00,16.0,0.0,-100.00,WNW,292,5.0,15.0,49,0.00,,,0.02,0.000000,,2013-01-23 08:02:00,
2013-01-23 03:12:00,15.0,0.0,-100.00,WNW,290,5.0,12.0,50,0.00,,,0.02,0.000000,,2013-01-23 08:12:00,
2013-01-23 03:33:00,15.0,0.0,-100.00,WNW,290,5.0,12.0,50,0.00,,,0.02,0.000000,,2013-01-23 08:33:00,
2013-01-23 03:43:00,15.0,0.0,-100.00,WNW,290,5.0,12.0,50,0.00,,,0.02,0.000000,,2013-01-23 08:43:00,
2013-01-23 03:53:00,15.0,0.0,-100.00,WNW,290,5.0,12.0,50,0.00,,,0.02,0.000000,,2013-01-23 08:53:00,
2013-01-23 04:03:00,15.0,0.0,-100.00,WNW,290,5.0,12.0,50,0.00,,,0.02,0.000000,,2013-01-23 09:03:00,
2013-01-23 04:12:00,14.0,-2.0,-100.00,West,271,5.0,11.0,47,0.00,,,0.02,0.000000,,2013-01-23 09:12:00,
2013-01-23 04:33:00,14.0,-2.0,-100.00,West,271,5.0,11.0,47,0.00,,,0.02,0.000000,,2013-01-23 09:33:00,
2013-01-23 04:43:00,14.0,-2.0,-100.00,West,271,5.0,11.0,47,0.00,,,0.02,0.000000,,2013-01-23 09:43:00,
2013-01-23 04:53:00,14.0,-2.0,-100.00,West,271,5.0,11.0,47,0.00,,,0.02,0.000000,,2013-01-23 09:53:00,
2013-01-23 05:03:00,14.0,-2.0,-100.00,West,271,5.0,11.0,47,0.00,,,0.02,0.000000,,2013-01-23 10:03:00,
2013-01-23 05:12:00,13.0,-1.0,-100.00,West,274,5.0,13.0,52,0.00,,,0.02,0.000000,,2013-01-23 10:12:00,
2013-01-23 05:33:00,13.0,-1.0,-100.00,West,274,5.0,13.0,52,0.00,,,0.02,0.000000,,2013-01-23 10:33:00,
2013-01-23 05:43:00,13.0,-1.0,-100.00,West,274,5.0,13.0,52,0.00,,,0.02,0.000000,,2013-01-23 10:43:00,
2013-01-23 05:53:00,13.0,-1.0,-100.00,West,274,5.0,13.0,52,0.00,,,0.02,0.000000,,2013-01-23 10:53:00,
2013-01-23 06:03:00,13.0,-1.0,-100.00,West,274,5.0,13.0,52,0.00,,,0.02,0.000000,,2013-01-23 11:03:00,
2013-01-23 06:12:00,13.0,-4.0,-100.00,West,277,6.0,12.0,46,0.00,,,0.02,0.000000,,2013-01-23 11:12:00,
2013-01-23 06:34:00,13.0,-4.0,-100.00,West,277,6.0,12.0,46,0.00,,,0.02,0.000000,,2013-01-23 11:34:00,
2013-01-23 06:43:00,13.0,-4.0,-100.00,West,277,6.0,12.0,46,0.00,,,0.02,0.000000,,2013-01-23 11:43:00,
2013-01-23 06:53:00,13.0,-4.0,-100.00,West,277,6.0,12.0,46,0.00,,,0.02,0.000000,,2013-01-23 11:53:00,
2013-01-23 07:03:00,13.0,-4.0,-100.00,West,277,6.0,12.0,46,0.00,,,0.02,0.000000,,2013-01-23 12:03:00,
2013-01-23 07:12:00,12.0,-7.0,-100.00,West,271,6.0,16.0,41,0.00,,,0.02,1.000000,,2013-01-23 12:12:00,
2013-01-23 07:33:00,12.0,-7.0,-100.00,West,271,6.0,16.0,41,0.00,,,0.02,1.000000,,2013-01-23 12:33:00,
2013-01-23 07:43:00,12.0,-7.0,-100.00,West,271,6.0,16.0,41,0.00,,,0.02,1.000000,,2013-01-23 12:43:00,
2013-01-23 07:53:00,12.0,-7.0,-100.00,West,271,6.0,16.0,41,0.00,,,0.02,1.000000,,2013-01-23 12:53:00,
2013-01-23 08:04:00,12.0,-7.0,-100.00,West,271,6.0,16.0,41,0.00,,,0.02,1.000000,,2013-01-23 13:04:00,
2013-01-23 08:12:00,12.0,-4.0,-100.00,West,265,5.0,15.0,47,0.00,,,0.02,18.000000,,2013-01-23 13:12:00,
2013-01-23 08:34:00,12.0,-4.0,-100.00,West,265,5.0,15.0,47,0.00,,,0.02,18.000000,,2013-01-23 13:34:00,
2013-01-23 08:43:00,12.0,-4.0,-100.00,West,265,5.0,15.0,47,0.00,,,0.02,18.000000,,2013-01-23 13:43:00,
2013-01-23 08:53:00,12.0,-4.0,-100.00,West,265,5.0,15.0,47,0.00,,,0.02,18.000000,,2013-01-23 13:53:00,
2013-01-23 09:03:00,12.0,-4.0,-100.00,West,265,5.0,15.0,47,0.00,,,0.02,18.000000,,2013-01-23 14:03:00,
2013-01-23 09:12:00,13.0,-2.0,-100.00,West,269,5.0,14.0,51,0.00,,,0.02,42.000000,,2013-01-23 14:12:00,
2013-01-23 09:33:00,13.0,-2.0,-100.00,West,269,5.0,14.0,51,0.00,,,0.02,42.000000,,2013-01-23 14:33:00,
2013-01-23 09:43:00,13.0,-2.0,-100.00,West,269,5.0,14.0,51,0.00,,,0.02,42.000000,,2013-01-23 14:43:00,
2013-01-23 09:53:00,13.0,-2.0,-100.00,West,269,5.0,14.0,51,0.00,,,0.02,42.000000,,2013-01-23 14:53:00,
2013-01-23 10:03:00,13.0,-2.0,-100.00,West,269,5.0,14.0,51,0.00,,,0.02,42.000000,,2013-01-23 15:03:00,
2013-01-23 10:12:00,15.0,-1.0,-100.00,West,273,6.0,15.0,48,0.00,,,0.02,88.000000,,2013-01-23 15:12:00,
2013-01-23 10:33:00,15.0,-1.0,-100.00,West,273,6.0,15.0,48,0.00,,,0.02,88.000000,,2013-01-23 15:33:00,
2013-01-23 10:43:00,15.0,-1.0,-100.00,West,273,6.0,15.0,48,0.00,,,0.02,88.000000,,2013-01-23 15:43:00,
2013-01-23 10:53:00,15.0,-1.0,-100.00,West,273,6.0,15.0,48,0.00,,,0.02,88.000000,,2013-01-23 15:53:00,
2013-01-23 11:03:00,15.0,-1.0,-100.00,West,273,6.0,15.0,48,0.00,,,0.02,88.000000,,2013-01-23 16:03:00,
2013-01-23 11:12:00,17.0,-3.0,-100.00,West,279,6.0,17.0,41,0.00,,,0.02,331.000000,,2013-01-23 16:12:00,
2013-01-23 11:33:00,17.0,-3.0,-100.00,West,279,6.0,17.0,41,0.00,,,0.02,331.000000,,2013-01-23 16:33:00,
2013-01-23 11:43:00,17.0,-3.0,-100.00,West,279,6.0,17.0,41,0.00,,,0.02,331.000000,,2013-01-23 16:43:00,
2013-01-23 11:53:00,17.0,-3.0,-100.00,West,279,6.0,17.0,41,0.00,,,0.02,331.000000,,2013-01-23 16:53:00,
2013-01-23 12:03:00,17.0,-3.0,-100.00,West,279,6.0,17.0,41,0.00,,,0.02,331.000000,,2013-01-23 17:03:00,
2013-01-23 12:12:00,17.0,-4.0,-100.00,West,265,6.0,15.0,39,0.00,,,0.02,456.000000,,2013-01-23 17:12:00,
2013-01-23 12:34:00,17.0,-4.0,-100.00,West,265,6.0,15.0,39,0.00,,,0.02,456.000000,,2013-01-23 17:34:00,
2013-01-23 12:43:00,17.0,-4.0,-100.00,West,265,6.0,15.0,39,0.00,,,0.02,456.000000,,2013-01-23 17:43:00,
2013-01-23 12:53:00,17.0,-4.0,-100.00,West,265,6.0,15.0,39,0.00,,,0.02,456.000000,,2013-01-23 17:53:00,
2013-01-23 13:03:00,17.0,-4.0,-100.00,West,265,6.0,15.0,39,0.00,,,0.02,456.000000,,2013-01-23 18:03:00,
2013-01-23 13:12:00,17.0,-4.0,-100.00,WNW,282,5.0,14.0,39,0.00,,,0.02,311.000000,,2013-01-23 18:12:00,
2013-01-23 13:33:00,17.0,-4.0,-100.00,WNW,282,5.0,14.0,39,0.00,,,0.02,311.000000,,2013-01-23 18:33:00,
2013-01-23 13:44:00,17.0,-4.0,-100.00,WNW,282,5.0,14.0,39,0.00,,,0.02,311.000000,,2013-01-23 18:44:00,
2013-01-23 13:53:00,17.0,-4.0,-100.00,WNW,282,5.0,14.0,39,0.00,,,0.02,311.000000,,2013-01-23 18:53:00,
2013-01-23 14:03:00,17.0,-4.0,-100.00,WNW,282,5.0,14.0,39,0.00,,,0.02,311.000000,,2013-01-23 19:03:00,
2013-01-23 14:12:00,17.0,-5.0,-100.00,WNW,284,5.0,16.0,37,0.00,,,0.02,213.000000,,2013-01-23 19:12:00,
2013-01-23 14:33:00,17.0,-5.0,-100.00,WNW,284,5.0,16.0,37,0.00,,,0.02,213.000000,,2013-01-23 19:33:00,
2013-01-23 14:43:00,17.0,-5.0,-100.00,WNW,284,5.0,16.0,37,0.00,,,0.02,213.000000,,2013-01-23 19:43:00,
2013-01-23 14:53:00,17.0,-5.0,-100.00,WNW,284,5.0,16.0,37,0.00,,,0.02,213.000000,,2013-01-23 19:53:00,
2013-01-23 15:03:00,17.0,-5.0,-100.00,WNW,284,5.0,16.0,37,0.00,,,0.02,213.000000,,2013-01-23 20:03:00,
2013-01-23 16:12:00,15.0,-4.0,-100.00,WNW,290,4.0,15.0,41,-99.99,,,0.00,117.000000,,2013-01-23 21:12:00,
2013-01-23 16:43:00,15.0,-4.0,-100.00,WNW,290,4.0,15.0,41,-99.99,,,0.00,117.000000,,2013-01-23 21:43:00,
2013-01-23 16:53:00,15.0,-4.0,-100.00,WNW,290,4.0,15.0,41,-99.99,,,0.00,117.000000,,2013-01-23 21:53:00,
2013-01-23 17:03:00,15.0,-4.0,-100.00,WNW,290,4.0,15.0,41,-99.99,,,0.00,117.000000,,2013-01-23 22:03:00,
2013-01-23 17:12:00,14.0,-6.0,-100.00,WNW,284,4.0,12.0,40,0.00,,,0.00,13.000000,,2013-01-23 22:12:00,
2013-01-23 18:03:00,14.0,-6.0,-100.00,WNW,284,4.0,12.0,40,0.00,,,0.00,13.000000,,2013-01-23 23:03:00,
2013-01-23 18:12:00,14.0,-5.0,-100.00,West,273,5.0,11.0,42,0.00,,,0.00,0.000000,,2013-01-23 23:12:00,
2013-01-23 18:33:00,14.0,-5.0,-100.00,West,273,5.0,11.0,42,0.00,,,0.00,0.000000,,2013-01-23 23:33:00,
2013-01-23 18:43:00,14.0,-5.0,-100.00,West,273,5.0,11.0,42,0.00,,,0.00,0.000000,,2013-01-23 23:43:00,
2013-01-23 18:53:00,14.0,-5.0,-100.00,West,273,5.0,11.0,42,0.00,,,0.00,0.000000,,2013-01-23 23:53:00,
2013-01-23 19:03:00,14.0,-5.0,-100.00,West,273,5.0,11.0,42,0.00,,,0.00,0.000000,,2013-01-24 00:03:00,
2013-01-23 19:12:00,14.0,-3.0,-100.00,West,275,5.0,13.0,45,0.00,,,0.00,0.000000,,2013-01-24 00:12:00,
2013-01-23 19:33:00,14.0,-3.0,-100.00,West,275,5.0,13.0,45,0.00,,,0.00,0.000000,,2013-01-24 00:33:00,
2013-01-23 19:43:00,14.0,-3.0,-100.00,West,275,5.0,13.0,45,0.00,,,0.00,0.000000,,2013-01-24 00:43:00,
2013-01-23 19:53:00,14.0,-3.0,-100.00,West,275,5.0,13.0,45,0.00,,,0.00,0.000000,,2013-01-24 00:53:00,
2013-01-23 20:03:00,14.0,-3.0,-100.00,West,275,5.0,13.0,45,0.00,,,0.00,0.000000,,2013-01-24 01:03:00,
2013-01-23 20:12:00,14.0,-2.0,-100.00,West,261,5.0,13.0,48,0.00,,,0.00,0.000000,,2013-01-24 01:12:00,
2013-01-23 20:43:00,14.0,-2.0,-100.00,West,261,5.0,13.0,48,0.00,,,0.00,0.000000,,2013-01-24 01:43:00,
2013-01-23 20:53:00,14.0,-2.0,-100.00,West,261,5.0,13.0,48,0.00,,,0.00,0.000000,,2013-01-24 01:53:00,
2013-01-23 21:03:00,14.0,-2.0,-100.00,West,261,5.0,13.0,48,0.00,,,0.00,0.000000,,2013-01-24 02:03:00,
2013-01-23 21:12:00,13.0,-3.0,-100.00,WNW,282,4.0,14.0,49,0.00,,,0.00,0.000000,,2013-01-24 02:12:00,
2013-01-23 21:33:00,13.0,-3.0,-100.00,WNW,282,4.0,14.0,49,0.00,,,0.00,0.000000,,2013-01-24 02:33:00,
2013-01-23 21:43:00,13.0,-3.0,-100.00,WNW,282,4.0,14.0,49,0.00,,,0.00,0.000000,,2013-01-24 02:43:00,
2013-01-23 21:53:00,13.0,-3.0,-100.00,WNW,282,4.0,14.0,49,0.00,,,0.00,0.000000,,2013-01-24 02:53:00,
2013-01-23 22:03:00,13.0,-3.0,-100.00,WNW,282,4.0,14.0,49,0.00,,,0.00,0.000000,,2013-01-24 03:03:00,
2013-01-23 22:12:00,13.0,-2.0,-100.00,West,277,5.0,13.0,51,0.00,,,0.00,0.000000,,2013-01-24 03:12:00,
2013-01-23 22:33:00,13.0,-2.0,-100.00,West,277,5.0,13.0,51,0.00,,,0.00,0.000000,,2013-01-24 03:33:00,
2013-01-23 22:43:00,13.0,-2.0,-100.00,West,277,5.0,13.0,51,0.00,,,0.00,0.000000,,2013-01-24 03:43:00,
2013-01-23 22:53:00,13.0,-2.0,-100.00,West,277,5.0,13.0,51,0.00,,,0.00,0.000000,,2013-01-24 03:53:00,
2013-01-23 23:03:00,13.0,-2.0,-100.00,West,277,5.0,13.0,51,0.00,,,0.00,0.000000,,2013-01-24 04:03:00,
2013-01-23 23:12:00,13.0,-1.0,-100.00,West,277,5.0,13.0,52,0.00,,,0.00,0.000000,,2013-01-24 04:12:00,
2013-01-23 23:33:00,13.0,-1.0,-100.00,West,277,5.0,13.0,52,0.00,,,0.00,0.000000,,2013-01-24 04:33:00,
2013-01-23 23:43:00,13.0,-1.0,-100.00,West,277,5.0,13.0,52,0.00,,,0.00,0.000000,,2013-01-24 04:43:00,
2013-01-23 23:53:00,13.0,-1.0,-100.00,West,277,5.0,13.0,52,0.00,,,0.00,0.000000,,2013-01-24 04:53:00,